Terminal Aerodrome Forecast
Issued by NWS Sioux Falls, SD

Home | Current Version | Previous Version | Text Only | Print | Product List | Glossary On
Versions: 1 2 3 4 5 6 7 8 9 10 11 12 13 14 15 16 17 18 19 20
000
FTUS43 KFSD 191542 AAB
TAFFSD
TAF AMD
KFSD 191542Z 1916/2012 32020G27KT P6SM SCT007 BKN018
      TEMPO 1916/1918 BKN007
     FM192000 34021G31KT P6SM BKN040 BKN100
     FM200100 33013G20KT P6SM SCT060=

USA.gov is the U.S. government's official web portal to all federal, state and local government web resources and services.